createdAt,value
2023-05-13T00:01:09.024Z,79.30
2023-05-13T00:03:36.379Z,79.10
2023-05-13T00:06:03.590Z,79.90
2023-05-13T00:08:30.604Z,80.40
2023-05-13T00:10:57.393Z,80.20
2023-05-13T00:13:24.243Z,81.10
2023-05-13T00:15:51.191Z,80.80
2023-05-13T00:18:18.143Z,80.90
2023-05-13T00:20:45.104Z,80.70
2023-05-13T00:23:11.871Z,81.40
2023-05-13T00:25:38.673Z,81.80
2023-05-13T00:28:05.550Z,82.00
2023-05-13T00:30:32.472Z,82.00
2023-05-13T00:32:59.306Z,83.00
2023-05-13T00:35:26.346Z,82.70
2023-05-13T00:37:53.114Z,83.30
2023-05-13T00:40:22.528Z,83.80
2023-05-13T00:42:49.981Z,83.70
2023-05-13T00:45:17.231Z,83.90
2023-05-13T00:47:44.343Z,84.70
2023-05-13T00:50:11.921Z,84.90
2023-05-13T00:52:39.873Z,84.50
2023-05-13T00:55:07.911Z,84.80
2023-05-13T00:57:35.324Z,85.00
2023-05-13T01:00:03.783Z,84.70
2023-05-13T01:02:42.860Z,84.70
2023-05-13T01:05:15.410Z,84.80
2023-05-13T01:07:53.900Z,85.40
2023-05-13T01:10:44.627Z,85.30
2023-05-13T01:13:18.337Z,85.40
2023-05-13T01:19:44.986Z,85.30
2023-05-13T01:22:12.018Z,86.40
2023-05-13T01:24:38.881Z,85.60
2023-05-13T01:27:07.022Z,86.60
2023-05-13T01:29:34.012Z,86.60
2023-05-13T01:32:02.130Z,86.60
2023-05-13T01:34:29.588Z,86.30
2023-05-13T01:36:56.629Z,86.20
2023-05-13T01:39:24.859Z,86.70
2023-05-13T01:41:51.955Z,86.90
2023-05-13T01:44:18.715Z,86.80
2023-05-13T01:46:47.074Z,87.10
2023-05-13T01:49:13.963Z,87.60
2023-05-13T01:51:41.493Z,87.20
2023-05-13T01:54:08.396Z,87.80
2023-05-13T01:56:35.267Z,88.20
2023-05-13T01:59:02.189Z,87.80
2023-05-13T02:01:29.003Z,87.60
2023-05-13T02:03:59.716Z,88.20
2023-05-13T02:06:27.986Z,88.30
2023-05-13T02:08:54.945Z,88.20
2023-05-13T02:11:22.459Z,88.00
2023-05-13T02:13:49.322Z,88.50
2023-05-13T02:16:20.347Z,89.10
2023-05-13T02:18:47.155Z,89.20
2023-05-13T02:21:13.967Z,89.00
2023-05-13T02:23:40.785Z,89.40
2023-05-13T02:26:07.586Z,90.00
2023-05-13T02:28:34.427Z,90.00
2023-05-13T02:31:01.158Z,90.00
2023-05-13T02:33:27.932Z,89.70
2023-05-13T02:35:54.761Z,89.80
2023-05-13T02:38:21.587Z,90.20
2023-05-13T02:40:48.375Z,90.30
2023-05-13T02:43:15.259Z,90.40
2023-05-13T02:45:42.074Z,90.60
2023-05-13T02:48:10.881Z,90.10
2023-05-13T02:50:37.807Z,90.10
2023-05-13T02:53:04.677Z,90.20
2023-05-13T02:55:31.522Z,89.70
2023-05-13T02:57:58.465Z,90.30
2023-05-13T03:00:25.386Z,90.00
2023-05-13T03:02:52.304Z,90.40
2023-05-13T03:05:19.107Z,89.90
2023-05-13T03:07:46.072Z,90.50
2023-05-13T03:10:13.451Z,90.70
2023-05-13T03:12:40.353Z,90.10
2023-05-13T03:15:07.653Z,91.00
2023-05-13T03:17:34.413Z,90.90
2023-05-13T03:20:01.304Z,91.50
2023-05-13T03:22:28.046Z,91.40
2023-05-13T03:24:55.028Z,91.30
2023-05-13T03:27:21.774Z,91.60
2023-05-13T03:29:48.487Z,91.30
2023-05-13T03:32:15.428Z,91.30
2023-05-13T03:34:42.293Z,91.30
2023-05-13T03:37:09.902Z,90.90
2023-05-13T03:39:36.653Z,90.50
2023-05-13T03:42:03.530Z,90.50
2023-05-13T03:44:30.362Z,90.30
2023-05-13T03:46:57.150Z,90.40
2023-05-13T03:49:23.982Z,90.10
2023-05-13T03:51:50.955Z,90.40
2023-05-13T03:54:17.741Z,90.90
2023-05-13T03:56:44.506Z,90.70
2023-05-13T03:59:11.294Z,90.70
2023-05-13T04:01:38.062Z,90.70
2023-05-13T04:04:04.957Z,90.10
2023-05-13T04:06:31.930Z,90.30
2023-05-13T04:08:58.734Z,90.50
2023-05-13T04:11:25.905Z,90.40
2023-05-13T04:13:52.660Z,90.20
2023-05-13T04:16:19.463Z,90.10
2023-05-13T04:18:46.419Z,90.10
2023-05-13T04:21:13.246Z,89.90
2023-05-13T04:23:39.990Z,89.70
2023-05-13T04:26:06.751Z,89.70
2023-05-13T04:28:34.653Z,89.90
2023-05-13T04:31:02.870Z,89.20
2023-05-13T04:33:29.796Z,89.70
2023-05-13T04:35:56.652Z,89.20
2023-05-13T04:38:23.424Z,89.80
2023-05-13T04:40:50.835Z,89.30
2023-05-13T04:43:18.670Z,89.30
2023-05-13T04:45:47.769Z,89.20
2023-05-13T04:48:14.907Z,88.90
2023-05-13T04:50:48.071Z,88.40
2023-05-13T04:53:15.654Z,87.90
2023-05-13T04:55:42.733Z,87.70
2023-05-13T04:58:09.512Z,87.80
2023-05-13T05:00:36.343Z,87.40
2023-05-13T05:03:03.200Z,86.70
2023-05-13T05:05:30.111Z,86.70
2023-05-13T05:07:56.937Z,86.10
2023-05-13T05:10:24.062Z,85.20
2023-05-13T05:12:51.014Z,83.70
2023-05-13T05:15:17.832Z,84.20
2023-05-13T05:17:45.007Z,84.40
2023-05-13T05:20:13.274Z,83.00
2023-05-13T05:22:41.786Z,82.20
2023-05-13T05:25:10.010Z,82.80
2023-05-13T05:27:36.807Z,82.00
2023-05-13T05:30:03.815Z,81.30
2023-05-13T05:32:30.968Z,80.80
2023-05-13T05:34:57.850Z,80.90
2023-05-13T05:37:24.596Z,81.00
2023-05-13T05:39:51.448Z,79.40
2023-05-13T05:42:18.241Z,79.30
2023-05-13T05:44:45.048Z,79.20
2023-05-13T05:47:11.861Z,78.20
2023-05-13T05:49:38.732Z,77.70
2023-05-13T05:52:05.865Z,78.00
2023-05-13T05:54:32.719Z,76.90
2023-05-13T05:56:59.488Z,76.40
2023-05-13T05:59:26.342Z,75.20
2023-05-13T06:01:53.167Z,75.80
2023-05-13T06:04:20.006Z,72.50
2023-05-13T06:06:46.849Z,70.00
2023-05-13T06:09:13.774Z,68.80
2023-05-13T06:11:41.775Z,70.00
2023-05-13T06:14:09.427Z,67.80
2023-05-13T06:16:36.242Z,65.00
2023-05-13T06:19:03.626Z,64.60
2023-05-13T06:21:32.058Z,63.40
2023-05-13T06:23:58.885Z,61.80
2023-05-13T06:26:25.735Z,60.50
2023-05-13T06:28:52.470Z,61.70
2023-05-13T06:31:19.249Z,58.00
2023-05-13T06:33:46.037Z,59.70
2023-05-13T06:36:13.115Z,56.00
2023-05-13T06:38:39.875Z,54.90
2023-05-13T06:41:06.664Z,54.80
2023-05-13T06:43:33.475Z,54.30
2023-05-13T06:46:00.973Z,52.50
2023-05-13T06:48:27.765Z,52.00
2023-05-13T06:50:54.548Z,50.60
2023-05-13T06:53:21.439Z,49.30
2023-05-13T06:55:48.422Z,49.80
2023-05-13T06:58:15.388Z,47.30
2023-05-13T07:00:42.215Z,46.80
2023-05-13T07:03:09.541Z,46.70
2023-05-13T07:05:36.571Z,45.60
2023-05-13T07:08:06.949Z,45.70
2023-05-13T07:10:34.441Z,45.00
2023-05-13T07:13:04.390Z,43.70
2023-05-13T07:15:31.359Z,43.20
2023-05-13T07:17:58.182Z,46.20
2023-05-13T07:20:26.441Z,46.10
2023-05-13T07:22:53.575Z,47.30
2023-05-13T07:25:20.495Z,48.20
2023-05-13T07:27:47.860Z,46.40
2023-05-13T07:30:15.042Z,47.70
2023-05-13T07:33:42.460Z,47.60
2023-05-13T07:36:09.441Z,46.30
2023-05-13T07:38:36.232Z,49.00
2023-05-13T07:41:03.074Z,45.40
2023-05-13T07:43:29.922Z,48.20
2023-05-13T07:45:56.721Z,42.50
2023-05-13T07:48:25.270Z,43.60
2023-05-13T07:50:52.483Z,44.20
2023-05-13T07:53:19.992Z,44.60
2023-05-13T07:55:50.163Z,43.80
2023-05-13T07:58:18.667Z,43.00
2023-05-13T08:00:45.692Z,41.60
2023-05-13T08:03:12.746Z,40.70
2023-05-13T08:05:39.661Z,42.70
2023-05-13T08:08:06.532Z,41.60
2023-05-13T08:10:33.289Z,41.20
2023-05-13T08:13:00.997Z,40.20
2023-05-13T08:15:28.267Z,41.60
2023-05-13T08:17:55.158Z,41.20
2023-05-13T08:20:26.628Z,40.20
2023-05-13T08:22:53.527Z,37.40
2023-05-13T08:25:20.602Z,41.00
2023-05-13T08:27:47.632Z,38.70
2023-05-13T08:30:14.936Z,39.40
2023-05-13T08:32:41.784Z,39.20
2023-05-13T08:35:45.775Z,39.10
2023-05-13T08:38:12.583Z,34.80
2023-05-13T08:40:39.479Z,37.10
2023-05-13T08:43:07.225Z,35.10
2023-05-13T08:45:36.384Z,34.80
2023-05-13T08:48:05.668Z,34.90
2023-05-13T08:50:32.748Z,33.80
2023-05-13T08:53:02.724Z,35.10
2023-05-13T08:55:29.540Z,35.90
2023-05-13T08:57:56.436Z,35.40
2023-05-13T09:00:23.427Z,31.80
2023-05-13T09:02:51.722Z,33.00
2023-05-13T09:05:18.918Z,34.10
2023-05-13T09:07:46.090Z,31.80
2023-05-13T09:10:12.846Z,32.70
2023-05-13T09:12:53.804Z,32.90
2023-05-13T09:15:26.018Z,31.70
2023-05-13T09:17:58.407Z,30.90
2023-05-13T09:20:26.068Z,31.60
2023-05-13T09:22:54.039Z,31.30
2023-05-13T09:25:24.498Z,30.80
2023-05-13T09:28:02.700Z,32.20
2023-05-13T09:30:30.913Z,31.10
2023-05-13T09:33:10.168Z,30.40
2023-05-13T09:35:48.659Z,30.60
2023-05-13T09:38:29.333Z,31.20
2023-05-13T09:40:57.968Z,31.00
2023-05-13T09:43:26.974Z,28.80
2023-05-13T09:46:00.688Z,30.50
2023-05-13T09:48:30.296Z,30.10
2023-05-13T09:50:58.323Z,30.30
2023-05-13T09:53:26.554Z,28.90
2023-05-13T09:55:55.023Z,27.20
2023-05-13T09:58:24.245Z,29.40
2023-05-13T10:00:51.814Z,29.60
2023-05-13T10:03:18.681Z,29.20
2023-05-13T10:05:45.977Z,27.10
2023-05-13T10:08:14.994Z,28.20
2023-05-13T10:10:45.720Z,29.80
2023-05-13T10:13:15.054Z,28.40
2023-05-13T10:15:55.677Z,29.80
2023-05-13T10:18:26.260Z,29.60
2023-05-13T10:20:53.904Z,29.20
2023-05-13T10:23:22.683Z,29.00
2023-05-13T10:25:51.958Z,27.70
2023-05-13T10:28:19.320Z,28.90
2023-05-13T10:30:46.340Z,28.60
2023-05-13T10:33:13.936Z,27.40
2023-05-13T10:35:49.495Z,28.70
2023-05-13T10:38:35.383Z,28.50
2023-05-13T10:41:30.000Z,28.50
2023-05-13T10:43:58.698Z,29.10
2023-05-13T10:46:26.078Z,29.00
2023-05-13T10:49:00.931Z,28.40
2023-05-13T10:51:27.688Z,25.90
2023-05-13T10:53:57.827Z,26.10
2023-05-13T10:56:27.837Z,29.60
2023-05-13T10:58:58.148Z,29.80
2023-05-13T11:01:36.022Z,29.40
2023-05-13T11:04:05.029Z,29.60
2023-05-13T11:06:37.055Z,28.30
2023-05-13T11:09:28.880Z,29.80
2023-05-13T11:12:00.120Z,27.60
2023-05-13T11:14:30.226Z,27.00
2023-05-13T11:17:04.371Z,27.30
2023-05-13T11:19:32.604Z,28.10
2023-05-13T11:22:10.448Z,27.70
2023-05-13T11:24:37.452Z,29.20
2023-05-13T11:27:21.143Z,27.60
2023-05-13T11:29:50.690Z,26.90
2023-05-13T11:32:54.020Z,27.90
2023-05-13T11:35:29.397Z,27.50
2023-05-13T11:37:59.861Z,29.10
2023-05-13T11:40:36.380Z,27.90
2023-05-13T11:43:06.097Z,28.20
2023-05-13T11:45:33.815Z,28.10
2023-05-13T11:48:22.179Z,27.10
2023-05-13T11:50:50.695Z,27.20
2023-05-13T11:53:23.860Z,26.80
2023-05-13T11:55:51.688Z,26.70
2023-05-13T11:58:20.793Z,27.80
2023-05-13T12:00:47.609Z,26.20
2023-05-13T12:03:16.270Z,26.40
2023-05-13T12:05:44.686Z,26.50
2023-05-13T12:08:11.753Z,25.40
2023-05-13T12:10:45.627Z,28.10
2023-05-13T12:13:12.895Z,29.30
2023-05-13T12:15:39.995Z,28.80
2023-05-13T12:18:08.162Z,27.90
2023-05-13T12:20:35.556Z,27.20
2023-05-13T12:23:02.777Z,29.50
2023-05-13T12:25:46.544Z,28.50
2023-05-13T12:28:19.530Z,26.70
2023-05-13T12:30:56.675Z,27.10
2023-05-13T12:33:24.572Z,27.70
2023-05-13T12:35:53.907Z,26.40
2023-05-13T12:38:24.734Z,26.70
2023-05-13T12:40:52.478Z,27.70
2023-05-13T12:43:20.288Z,27.60
2023-05-13T12:45:51.869Z,27.00
2023-05-13T12:48:24.844Z,26.30
2023-05-13T12:50:51.865Z,27.50
2023-05-13T12:53:18.631Z,24.80
2023-05-13T12:55:45.469Z,27.70
2023-05-13T12:58:13.194Z,27.00
2023-05-13T13:00:40.352Z,24.70
2023-05-13T13:03:08.066Z,25.10
2023-05-13T13:05:35.407Z,28.20
2023-05-13T13:08:05.008Z,26.30
2023-05-13T13:10:31.892Z,27.90
2023-05-13T13:12:58.731Z,28.60
2023-05-13T13:15:25.774Z,27.00
2023-05-13T13:17:52.763Z,28.60
2023-05-13T13:20:19.576Z,29.20
2023-05-13T13:22:46.396Z,28.60
2023-05-13T13:25:13.189Z,26.60
2023-05-13T13:27:39.984Z,27.80
2023-05-13T13:30:09.070Z,29.20
2023-05-13T13:32:36.023Z,29.40
2023-05-13T13:35:05.424Z,28.80
2023-05-13T13:37:32.209Z,29.10
2023-05-13T13:39:59.002Z,27.80
2023-05-13T13:42:33.601Z,29.00
2023-05-13T13:45:10.668Z,29.80
2023-05-13T13:47:37.564Z,28.80
2023-05-13T13:50:04.780Z,29.30
2023-05-13T13:52:31.620Z,27.40
2023-05-13T13:54:58.413Z,29.20
2023-05-13T13:57:25.244Z,29.80
2023-05-13T13:59:52.090Z,28.20
2023-05-13T14:02:18.907Z,29.70
2023-05-13T14:04:46.463Z,28.30
2023-05-13T14:07:13.491Z,28.60
2023-05-13T14:09:40.426Z,30.10
2023-05-13T14:12:07.298Z,29.90
2023-05-13T14:14:34.097Z,29.50
2023-05-13T14:17:00.974Z,29.00
2023-05-13T14:19:27.757Z,28.50
2023-05-13T14:21:54.463Z,29.30
2023-05-13T14:24:21.362Z,29.30
2023-05-13T14:26:48.150Z,29.60
2023-05-13T14:29:14.870Z,29.40
2023-05-13T14:31:41.792Z,30.10
2023-05-13T14:34:08.599Z,28.70
2023-05-13T14:36:36.084Z,29.60
2023-05-13T14:39:03.010Z,28.90
2023-05-13T14:41:30.297Z,28.80
2023-05-13T14:43:57.051Z,28.10
2023-05-13T14:46:23.858Z,29.90
2023-05-13T14:48:50.883Z,28.40
2023-05-13T14:51:17.850Z,29.20
2023-05-13T14:53:44.845Z,29.80
2023-05-13T14:56:11.976Z,28.00
2023-05-13T14:58:38.804Z,30.80
2023-05-13T15:01:05.676Z,29.10
2023-05-13T15:03:32.672Z,30.20
2023-05-13T15:05:59.520Z,29.60
2023-05-13T15:08:26.356Z,31.40
2023-05-13T15:10:53.122Z,31.10
2023-05-13T15:13:19.940Z,31.20
2023-05-13T15:15:46.794Z,32.20
2023-05-13T15:18:14.085Z,32.60
2023-05-13T15:20:41.012Z,32.30
2023-05-13T15:23:07.766Z,32.90
2023-05-13T15:25:35.379Z,33.70
2023-05-13T15:28:02.540Z,34.10
2023-05-13T15:30:29.601Z,33.80
2023-05-13T15:32:56.544Z,34.50
2023-05-13T15:35:23.326Z,35.80
2023-05-13T15:37:50.082Z,36.00
2023-05-13T15:40:17.151Z,36.30
2023-05-13T15:42:43.924Z,36.90
2023-05-13T15:45:10.827Z,37.90
2023-05-13T15:47:37.767Z,38.70
2023-05-13T15:50:05.327Z,37.00
2023-05-13T15:52:32.163Z,36.40
2023-05-13T15:54:59.138Z,36.50
2023-05-13T15:57:25.982Z,36.90
2023-05-13T15:59:52.784Z,37.20
2023-05-13T16:02:19.655Z,38.10
2023-05-13T16:04:46.553Z,36.30
2023-05-13T16:07:13.424Z,36.50
2023-05-13T16:09:40.506Z,36.20
2023-05-13T16:12:07.526Z,38.30
2023-05-13T16:14:34.680Z,38.60
2023-05-13T16:17:03.393Z,38.70
2023-05-13T16:19:30.184Z,38.20
2023-05-13T16:21:56.961Z,38.60
2023-05-13T16:24:23.736Z,38.80
2023-05-13T16:26:50.471Z,38.80
2023-05-13T16:29:17.778Z,38.10
2023-05-13T16:31:44.890Z,37.90
2023-05-13T16:34:11.795Z,37.80
2023-05-13T16:36:38.661Z,38.20
2023-05-13T16:39:05.497Z,38.30
2023-05-13T16:41:33.160Z,38.10
2023-05-13T16:43:59.981Z,37.90
2023-05-13T16:46:26.739Z,37.60
2023-05-13T16:48:53.636Z,38.00
2023-05-13T16:51:20.584Z,38.40
2023-05-13T16:53:47.536Z,38.50
2023-05-13T16:56:14.415Z,39.10
2023-05-13T16:58:41.445Z,39.20
2023-05-13T17:01:08.333Z,39.10
2023-05-13T17:03:35.234Z,39.70
2023-05-13T17:06:03.102Z,40.10
2023-05-13T17:08:30.046Z,39.90
2023-05-13T17:10:56.779Z,40.20
2023-05-13T17:13:23.628Z,40.30
2023-05-13T17:15:50.844Z,40.00
2023-05-13T17:18:17.951Z,40.30
2023-05-13T17:20:45.900Z,40.00
2023-05-13T17:23:12.753Z,40.70
2023-05-13T17:25:39.543Z,41.00
2023-05-13T17:28:09.209Z,41.00
2023-05-13T17:30:36.051Z,41.30
2023-05-13T17:33:02.905Z,41.60
2023-05-13T17:35:29.686Z,41.50
2023-05-13T17:37:56.595Z,42.10
2023-05-13T17:40:23.617Z,42.10
2023-05-13T17:42:52.749Z,42.60
2023-05-13T17:45:19.895Z,42.70
2023-05-13T17:47:46.943Z,42.90
2023-05-13T17:50:14.898Z,42.80
2023-05-13T17:52:41.909Z,43.00
2023-05-13T17:55:09.473Z,43.10
2023-05-13T17:57:36.289Z,43.10
2023-05-13T18:00:07.044Z,43.60
2023-05-13T18:02:34.054Z,44.00
2023-05-13T18:05:00.949Z,44.30
2023-05-13T18:07:28.015Z,44.70
2023-05-13T18:09:54.998Z,44.80
2023-05-13T18:12:21.875Z,45.20
2023-05-13T18:14:48.657Z,45.20
2023-05-13T18:17:15.379Z,45.80
2023-05-13T18:19:42.110Z,45.90
2023-05-13T18:22:09.240Z,46.30
2023-05-13T18:24:38.219Z,46.50
2023-05-13T18:27:06.625Z,46.90
2023-05-13T18:29:33.817Z,47.20
2023-05-13T18:32:00.726Z,47.40
2023-05-13T18:34:27.857Z,47.70
2023-05-13T18:36:54.881Z,47.80
2023-05-13T18:39:21.913Z,48.00
2023-05-13T18:41:49.086Z,48.60
2023-05-13T18:44:16.086Z,48.70
2023-05-13T18:46:44.532Z,48.60
2023-05-13T18:49:11.897Z,49.00
2023-05-13T18:51:38.713Z,49.00
2023-05-13T18:54:06.208Z,49.70
2023-05-13T18:56:33.752Z,50.20
2023-05-13T18:59:00.846Z,51.50
2023-05-13T19:01:27.714Z,53.80
2023-05-13T19:03:54.719Z,53.00
2023-05-13T19:06:21.720Z,54.80
2023-05-13T19:08:48.616Z,55.20
2023-05-13T19:11:15.406Z,55.50
2023-05-13T19:13:47.320Z,56.10
2023-05-13T19:16:15.318Z,57.70
2023-05-13T19:18:42.520Z,55.60
2023-05-13T19:21:09.317Z,55.70
2023-05-13T19:23:37.852Z,54.80
2023-05-13T19:26:04.688Z,57.90
2023-05-13T19:28:32.030Z,56.70
2023-05-13T19:30:58.856Z,57.00
2023-05-13T19:33:26.096Z,56.30
2023-05-13T19:35:52.873Z,56.70
2023-05-13T19:38:20.776Z,56.90
2023-05-13T19:40:47.950Z,57.70
2023-05-13T19:43:14.820Z,57.50
2023-05-13T19:45:41.941Z,57.40
2023-05-13T19:48:08.860Z,58.20
2023-05-13T19:50:35.827Z,57.90
2023-05-13T19:53:02.585Z,58.30
2023-05-13T19:55:29.702Z,58.50
2023-05-13T19:57:56.825Z,58.50
2023-05-13T20:00:24.190Z,59.00
2023-05-13T20:02:51.592Z,58.60
2023-05-13T20:05:18.455Z,58.70
2023-05-13T20:07:45.648Z,59.50
2023-05-13T20:10:12.646Z,59.30
2023-05-13T20:12:39.395Z,59.30
2023-05-13T20:15:06.971Z,60.20
2023-05-13T20:17:34.138Z,60.40
2023-05-13T20:20:01.246Z,60.40
2023-05-13T20:22:28.126Z,61.10
2023-05-13T20:24:54.964Z,62.10
2023-05-13T20:27:21.818Z,61.60
2023-05-13T20:29:49.270Z,61.60
2023-05-13T20:32:24.608Z,62.70
2023-05-13T20:34:52.554Z,62.30
2023-05-13T20:37:21.825Z,64.40
2023-05-13T20:39:50.260Z,63.40
2023-05-13T20:42:17.204Z,63.20
2023-05-13T20:44:45.922Z,63.70
2023-05-13T20:47:13.564Z,63.60
2023-05-13T20:49:43.636Z,63.50
2023-05-13T20:52:11.364Z,63.70
2023-05-13T20:54:38.316Z,64.20
2023-05-13T20:57:05.620Z,64.30
2023-05-13T20:59:32.540Z,64.40
2023-05-13T21:01:59.531Z,64.90
2023-05-13T21:04:26.738Z,65.00
2023-05-13T21:06:53.560Z,65.60
2023-05-13T21:09:20.345Z,65.90
2023-05-13T21:11:47.115Z,66.30
2023-05-13T21:14:13.942Z,66.20
2023-05-13T21:16:40.743Z,67.60
2023-05-13T21:19:07.669Z,67.50
2023-05-13T21:21:34.501Z,67.50
2023-05-13T21:24:01.300Z,68.60
2023-05-13T21:26:28.143Z,68.00
2023-05-13T21:28:54.953Z,69.70
2023-05-13T21:31:21.863Z,69.50
2023-05-13T21:33:49.078Z,69.70
2023-05-13T21:36:16.118Z,68.90
2023-05-13T21:38:42.952Z,69.90
2023-05-13T21:41:09.757Z,71.20
2023-05-13T21:43:36.556Z,70.80
2023-05-13T21:46:03.479Z,70.40
2023-05-13T21:48:30.375Z,70.10
2023-05-13T21:50:57.849Z,71.80
2023-05-13T21:53:24.587Z,71.80
2023-05-13T21:55:51.852Z,72.30
2023-05-13T21:58:19.435Z,72.20
2023-05-13T22:00:47.609Z,72.60
2023-05-13T22:03:14.376Z,73.20
2023-05-13T22:05:44.127Z,73.60
2023-05-13T22:08:11.377Z,73.50
2023-05-13T22:10:39.164Z,72.90
2023-05-13T22:13:06.316Z,73.40
2023-05-13T22:15:33.123Z,74.40
2023-05-13T22:17:59.948Z,73.80
2023-05-13T22:20:26.842Z,74.00
2023-05-13T22:22:53.593Z,74.20
2023-05-13T22:25:20.363Z,75.20
2023-05-13T22:27:48.651Z,75.30
2023-05-13T22:30:15.540Z,74.50
2023-05-13T22:32:42.377Z,74.80
2023-05-13T22:35:09.587Z,75.30
2023-05-13T22:37:36.441Z,74.80
2023-05-13T22:40:03.211Z,75.60
2023-05-13T22:42:30.005Z,75.40
2023-05-13T22:44:56.829Z,76.10
2023-05-13T22:47:23.660Z,75.40
2023-05-13T22:49:50.591Z,76.10
2023-05-13T22:52:17.404Z,76.50
2023-05-13T22:54:44.277Z,77.50
2023-05-13T22:57:11.160Z,77.20
2023-05-13T22:59:38.052Z,77.50
2023-05-13T23:02:05.169Z,77.20
2023-05-13T23:04:32.309Z,77.80
2023-05-13T23:06:59.110Z,78.10
2023-05-13T23:09:25.877Z,77.90
2023-05-13T23:11:52.682Z,78.50
2023-05-13T23:14:19.391Z,79.50
2023-05-13T23:16:46.188Z,80.50
2023-05-13T23:19:13.069Z,79.50
2023-05-13T23:21:39.873Z,80.20
2023-05-13T23:24:06.786Z,79.90
2023-05-13T23:26:33.764Z,80.00
2023-05-13T23:29:00.600Z,81.00
2023-05-13T23:31:27.494Z,81.00
2023-05-13T23:33:54.302Z,80.80
2023-05-13T23:36:21.125Z,80.90
2023-05-13T23:38:47.895Z,80.20
2023-05-13T23:41:14.603Z,80.50
2023-05-13T23:43:41.409Z,81.00
2023-05-13T23:46:08.251Z,81.80
2023-05-13T23:48:35.236Z,82.30
2023-05-13T23:51:02.065Z,81.40
2023-05-13T23:53:28.857Z,81.90
2023-05-13T23:55:55.698Z,81.70
2023-05-13T23:58:22.488Z,83.20
